Time;durP1;ratioP1;P1;durP2;ratioP2;P2;SDS_P1;SDS_P2;PMS_P1;PMS_P2;Temp;Humidity;BMP_temperature;BMP_pressure;BME280_temperature;BME280_humidity;BME280_pressure;Samples;Min_cycle;Max_cycle;Signal;HPM_P1;HPM_P2
2022/06/17 00:00:43;;;;;;;3.40;3.10;;;;;;;20.33;45.92;156589.56;5052986;28;20419;-78
2022/06/17 00:03:10;;;;;;;4.70;4.30;;;;;;;20.36;45.96;156597.38;5053187;28;20496;-78
2022/06/17 00:05:37;;;;;;;4.30;3.90;;;;;;;20.25;46.67;156568.69;5084693;28;20424;-78
2022/06/17 00:08:06;;;;;;;3.77;3.47;;;;;;;20.23;46.41;156564.69;5096637;27;20550;-78
2022/06/17 00:10:32;;;;;;;3.80;3.50;;;;;;;20.20;46.72;156556.84;5086504;28;20571;-78
2022/06/17 00:12:59;;;;;;;3.83;3.13;;;;;;;20.18;46.64;156550.34;5067129;28;20422;-78
2022/06/17 00:15:26;;;;;;;4.10;3.80;;;;;;;20.14;46.61;156541.25;5058720;28;20841;-79
2022/06/17 00:17:53;;;;;;;4.20;3.90;;;;;;;20.13;46.85;156538.63;5072761;28;20955;-78
2022/06/17 00:20:22;;;;;;;4.20;3.80;;;;;;;20.04;46.88;156516.44;5062496;28;20462;-78
2022/06/17 00:22:49;;;;;;;5.10;3.43;;;;;;;20.02;47.08;156509.91;5051556;28;21197;-79
2022/06/17 00:25:25;;;;;;;4.03;3.70;;;;;;;20.03;46.99;156512.53;5052303;28;20465;-78
2022/06/17 00:27:52;;;;;;;5.00;3.50;;;;;;;20.03;47.12;156513.88;5051479;28;21036;-79
2022/06/17 00:30:22;;;;;;;3.87;3.57;;;;;;;19.98;47.17;156500.81;5051297;28;20573;-78
2022/06/17 00:32:48;;;;;;;3.80;3.37;;;;;;;19.92;47.44;156483.84;5084911;28;20485;-79
2022/06/17 00:35:15;;;;;;;6.00;4.07;;;;;;;19.84;47.69;156464.31;5085266;28;20469;-79
2022/06/17 00:37:42;;;;;;;4.13;3.83;;;;;;;19.81;47.75;156456.47;5045498;28;20474;-78
2022/06/17 00:40:15;;;;;;;4.40;4.10;;;;;;;19.77;47.95;156444.75;5061729;28;20449;-79
2022/06/17 00:42:43;;;;;;;4.20;3.80;;;;;;;19.70;48.46;156426.47;5051765;28;20429;-78
2022/06/17 00:45:16;;;;;;;4.00;3.60;;;;;;;19.70;48.41;156426.47;5066714;28;20473;-78
2022/06/17 00:47:46;;;;;;;3.60;3.30;;;;;;;19.63;48.43;156409.53;5071945;28;20415;-78
2022/06/17 00:50:17;;;;;;;4.00;3.70;;;;;;;19.59;48.61;156397.81;5072410;28;20866;-79
2022/06/17 00:52:47;;;;;;;4.13;3.83;;;;;;;19.56;48.67;156390.00;5071719;28;20476;-78
2022/06/17 00:55:18;;;;;;;6.13;3.83;;;;;;;19.55;48.65;156388.69;5066903;28;20526;-78
2022/06/17 00:57:46;;;;;;;5.10;3.70;;;;;;;19.48;48.94;156369.13;5060187;28;20565;-79
2022/06/17 01:00:17;;;;;;;4.70;3.63;;;;;;;19.46;49.33;156365.19;5050604;28;20446;-78
2022/06/17 01:02:46;;;;;;;4.00;3.20;;;;;;;19.38;49.51;156345.66;5052324;28;20442;-79
2022/06/17 01:05:16;;;;;;;4.20;3.47;;;;;;;19.30;49.89;156324.75;5050297;28;20798;-75
2022/06/17 01:07:45;;;;;;;3.83;3.53;;;;;;;19.27;50.30;156315.66;5066966;28;20485;-75
2022/06/17 01:10:13;;;;;;;4.00;3.53;;;;;;;19.22;50.21;156303.88;5067065;28;20493;-74
2022/06/17 01:12:43;;;;;;;7.20;4.57;;;;;;;19.18;50.04;156293.50;5070672;28;20442;-75
2022/06/17 01:15:14;;;;;;;4.27;3.67;;;;;;;19.21;50.31;156300.00;5057491;28;20797;-75
2022/06/17 01:17:41;;;;;;;4.00;3.60;;;;;;;19.10;50.70;156272.63;5070183;28;20790;-75
2022/06/17 01:20:12;;;;;;;3.87;3.53;;;;;;;19.05;51.12;156258.28;5037439;28;20478;-75
2022/06/17 01:22:43;;;;;;;4.20;3.90;;;;;;;19.01;51.25;156249.16;5052772;28;20431;-75
2022/06/17 01:25:13;;;;;;;3.87;3.57;;;;;;;19.02;51.25;156251.78;5071502;28;20939;-75
2022/06/17 01:27:43;;;;;;;5.40;3.90;;;;;;;18.99;51.54;156242.66;5103913;28;20434;-75
2022/06/17 01:30:14;;;;;;;4.30;3.53;;;;;;;18.95;52.04;156233.56;5049687;28;20508;-75
2022/06/17 01:32:46;;;;;;;4.57;4.03;;;;;;;18.90;51.80;156220.53;5051761;28;20431;-75
2022/06/17 01:35:13;;;;;;;4.23;3.83;;;;;;;18.83;52.44;156203.56;5059833;28;20451;-75
2022/06/17 01:37:42;;;;;;;4.03;3.50;;;;;;;18.80;52.33;156194.44;5050395;28;20447;-76
2022/06/17 01:40:10;;;;;;;3.97;3.67;;;;;;;18.70;52.74;156169.69;5033526;28;20486;-75
2022/06/17 01:42:39;;;;;;;4.00;3.70;;;;;;;18.66;52.31;156159.31;5051191;28;20427;-75
2022/06/17 01:45:07;;;;;;;4.60;3.80;;;;;;;18.66;52.45;156159.31;5063277;28;20525;-75
2022/06/17 01:47:34;;;;;;;4.67;4.27;;;;;;;18.69;52.60;156165.81;5066191;28;20442;-75
2022/06/17 01:50:05;;;;;;;4.37;3.97;;;;;;;18.61;52.81;156144.97;5049931;28;20480;-75
2022/06/17 01:52:34;;;;;;;3.83;3.53;;;;;;;18.56;53.03;156133.19;5034116;28;20462;-75
2022/06/17 01:55:08;;;;;;;3.97;3.30;;;;;;;18.56;53.50;156131.94;5049425;28;20451;-75
2022/06/17 01:57:40;;;;;;;5.30;3.80;;;;;;;18.48;53.24;156112.38;5066678;28;20480;-75
2022/06/17 02:00:13;;;;;;;4.67;3.80;;;;;;;18.44;53.28;156101.91;5083535;28;20468;-75
2022/06/17 02:02:49;;;;;;;3.80;3.50;;;;;;;18.41;54.06;156092.78;5040070;28;20438;-74
2022/06/17 02:05:16;;;;;;;4.27;3.90;;;;;;;18.36;54.18;156081.06;5050261;28;20523;-75
2022/06/17 02:07:48;;;;;;;4.27;3.57;;;;;;;18.37;54.25;156082.38;5049707;28;20475;-75
2022/06/17 02:10:16;;;;;;;5.60;4.00;;;;;;;18.37;54.47;156082.38;5087410;28;20474;-74
2022/06/17 02:12:45;;;;;;;5.00;3.93;;;;;;;18.31;54.43;156066.75;5050860;28;20442;-74
2022/06/17 02:15:12;;;;;;;4.10;3.80;;;;;;;18.31;54.39;156066.75;5063053;28;20535;-75
2022/06/17 02:17:58;;;;;;;4.17;3.77;;;;;;;18.27;54.29;156058.91;5062483;28;20438;-75
2022/06/17 02:20:37;;;;;;;3.80;3.50;;;;;;;18.26;54.34;156055.03;5036651;28;20470;-75
2022/06/17 02:23:04;;;;;;;4.90;3.80;;;;;;;18.27;54.58;156056.34;5048849;28;20679;-74
2022/06/17 02:25:37;;;;;;;4.03;3.73;;;;;;;18.15;54.93;156027.69;5056124;28;20442;-75
2022/06/17 02:28:04;;;;;;;5.10;3.70;;;;;;;18.15;54.90;156027.69;5058584;28;20463;-75
2022/06/17 02:30:32;;;;;;;4.30;3.90;;;;;;;18.08;55.16;156008.16;5054905;28;21063;-75
2022/06/17 02:33:01;;;;;;;4.00;3.70;;;;;;;18.02;55.41;155992.53;5087119;28;20488;-75
2022/06/17 02:35:31;;;;;;;3.80;3.50;;;;;;;18.03;55.62;155996.41;5085982;28;20490;-75
2022/06/17 02:37:58;;;;;;;4.13;3.73;;;;;;;18.04;55.88;155999.03;5036426;28;20918;-75
2022/06/17 02:40:30;;;;;;;3.90;3.60;;;;;;;18.02;55.73;155993.81;5054916;28;20501;-75
2022/06/17 02:42:59;;;;;;;4.40;3.60;;;;;;;17.95;55.79;155975.56;5070252;28;20435;-75
2022/06/17 02:45:27;;;;;;;3.70;3.40;;;;;;;17.89;56.10;155959.97;5053396;28;21020;-75
2022/06/17 02:47:55;;;;;;;4.83;3.70;;;;;;;17.85;56.88;155948.22;5052958;28;20445;-75
2022/06/17 02:50:24;;;;;;;3.70;3.40;;;;;;;17.75;57.25;155923.50;5052911;28;20489;-75
2022/06/17 02:52:52;;;;;;;4.07;3.70;;;;;;;17.75;56.83;155923.50;5088508;28;20439;-75
2022/06/17 02:55:22;;;;;;;3.93;3.63;;;;;;;17.74;56.75;155920.88;5068090;28;20459;-75
2022/06/17 02:57:49;;;;;;;3.83;3.43;;;;;;;17.73;56.74;155917.00;5069469;28;20445;-74
2022/06/17 03:00:21;;;;;;;3.70;3.40;;;;;;;17.67;56.42;155902.69;5053011;28;20534;-74
2022/06/17 03:02:50;;;;;;;4.50;4.10;;;;;;;17.64;57.12;155894.84;5069266;28;20438;-75
2022/06/17 03:05:22;;;;;;;4.60;3.83;;;;;;;17.62;57.33;155889.66;5069052;28;20533;-75
2022/06/17 03:07:49;;;;;;;4.23;3.83;;;;;;;17.57;57.54;155877.97;5062937;28;20792;-75
2022/06/17 03:10:31;;;;;;;3.60;3.30;;;;;;;17.54;57.66;155868.84;5055965;28;20870;-75
2022/06/17 03:13:03;;;;;;;4.27;3.87;;;;;;;17.55;57.26;155871.47;5064213;28;20443;-74
2022/06/17 03:15:31;;;;;;;4.10;3.70;;;;;;;17.47;58.09;155851.84;5072398;28;20852;-74
2022/06/17 03:17:58;;;;;;;4.43;3.77;;;;;;;17.53;57.57;155867.53;5066951;28;20749;-75
2022/06/17 03:20:27;;;;;;;3.83;3.43;;;;;;;17.60;57.50;155885.78;5085562;28;20570;-75
2022/06/17 03:22:59;;;;;;;3.50;3.20;;;;;;;17.57;57.41;155876.66;5052195;28;20546;-75
2022/06/17 03:25:29;;;;;;;4.10;3.63;;;;;;;17.56;57.85;155874.03;5085372;28;20500;-75
2022/06/17 03:28:00;;;;;;;3.50;3.30;;;;;;;17.52;57.68;155863.59;5068822;28;20482;-75
2022/06/17 03:30:34;;;;;;;4.40;3.80;;;;;;;17.47;57.96;155850.56;5051889;28;20459;-75
2022/06/17 03:33:07;;;;;;;5.00;4.37;;;;;;;17.52;57.75;155863.59;5052540;28;20426;-75
2022/06/17 03:35:36;;;;;;;4.60;4.17;;;;;;;17.49;57.93;155857.09;5070935;28;20530;-75
2022/06/17 03:38:07;;;;;;;4.37;3.70;;;;;;;17.52;58.19;155864.91;5088805;28;20803;-76
2022/06/17 03:40:38;;;;;;;4.00;3.30;;;;;;;17.54;58.00;155868.84;5055236;28;20438;-75
2022/06/17 03:43:09;;;;;;;4.00;3.63;;;;;;;17.50;58.26;155858.38;5052099;28;20431;-75
2022/06/17 03:45:43;;;;;;;4.40;3.73;;;;;;;17.51;58.28;155862.28;5083134;28;20446;-75
2022/06/17 03:48:16;;;;;;;3.60;3.30;;;;;;;17.53;58.40;155866.22;5070968;28;20799;-75
2022/06/17 03:50:47;;;;;;;4.50;4.07;;;;;;;17.56;58.34;155874.03;5055802;28;20472;-75
2022/06/17 03:53:23;;;;;;;3.63;3.33;;;;;;;17.58;58.54;155879.22;5070842;28;20449;-75
2022/06/17 03:55:50;;;;;;;5.13;3.70;;;;;;;17.60;58.89;155884.47;5072555;28;20503;-75
2022/06/17 03:58:19;;;;;;;4.37;3.63;;;;;;;17.62;58.34;155889.66;5054825;28;20434;-75
2022/06/17 04:00:59;;;;;;;4.07;3.67;;;;;;;17.64;58.70;155894.84;5054839;28;20491;-75
2022/06/17 04:03:33;;;;;;;4.03;3.70;;;;;;;17.66;58.52;155898.78;5065571;28;20454;-76
2022/06/17 04:06:08;;;;;;;4.97;4.00;;;;;;;17.70;58.36;155909.19;5067719;28;20446;-76
2022/06/17 04:08:50;;;;;;;4.07;3.77;;;;;;;17.81;58.31;155939.16;5051988;28;20814;-76
2022/06/17 04:11:17;;;;;;;3.90;3.50;;;;;;;17.95;57.97;155974.31;5051088;28;20489;-76
2022/06/17 04:13:45;;;;;;;3.73;3.43;;;;;;;18.07;57.83;156006.84;5064511;28;20461;-75
2022/06/17 04:16:18;;;;;;;4.43;4.00;;;;;;;18.16;57.36;156029.00;5072180;28;20456;-75
2022/06/17 04:18:46;;;;;;;4.00;3.40;;;;;;;18.30;56.62;156064.13;5067775;28;20478;-76
2022/06/17 04:21:14;;;;;;;3.77;3.47;;;;;;;18.41;56.64;156092.78;5087243;28;20540;-75
2022/06/17 04:23:47;;;;;;;5.50;3.77;;;;;;;18.56;55.85;156131.94;5063174;28;20916;-79
2022/06/17 04:26:35;;;;;;;4.00;3.60;;;;;;;18.47;55.80;156108.44;5060371;28;20446;-79
2022/06/17 04:29:13;;;;;;;3.90;3.50;;;;;;;18.40;56.45;156090.22;5051251;28;20469;-79
2022/06/17 04:31:40;;;;;;;4.03;3.63;;;;;;;18.47;56.45;156108.44;5034685;28;20549;-79
2022/06/17 04:34:14;;;;;;;3.70;3.40;;;;;;;18.65;56.04;156155.38;5060615;28;20445;-79
2022/06/17 04:36:47;;;;;;;7.40;3.33;;;;;;;18.73;55.97;156176.22;5046473;28;20449;-79
2022/06/17 04:39:21;;;;;;;4.17;3.77;;;;;;;18.83;55.16;156202.25;5052726;28;20447;-79
2022/06/17 04:42:02;;;;;;;3.50;3.20;;;;;;;19.00;54.88;156246.59;5066492;28;20430;-79
2022/06/17 04:44:33;;;;;;;3.90;3.50;;;;;;;19.05;54.60;156259.59;5051611;28;20791;-79
2022/06/17 04:47:04;;;;;;;3.80;3.50;;;;;;;19.04;55.01;156255.66;5050230;28;20462;-79
2022/06/17 04:49:58;;;;;;;4.10;3.80;;;;;;;19.10;54.21;156272.63;5047888;28;20937;-79
2022/06/17 04:52:34;;;;;;;3.90;3.60;;;;;;;19.00;54.84;156246.59;5066855;28;20506;-79
2022/06/17 04:55:23;;;;;;;3.53;3.23;;;;;;;19.14;54.48;156283.03;5063704;28;20895;-79
2022/06/17 04:58:00;;;;;;;4.13;3.40;;;;;;;19.24;54.29;156307.84;5071395;28;20414;-79
2022/06/17 05:00:30;;;;;;;7.33;4.33;;;;;;;19.27;54.15;156316.91;5069964;28;20508;-79
2022/06/17 05:03:00;;;;;;;4.30;3.90;;;;;;;19.35;53.73;156337.78;5087234;28;20445;-79
2022/06/17 05:05:34;;;;;;;3.70;3.40;;;;;;;19.32;53.55;156330.00;5071631;28;20570;-79
2022/06/17 05:08:06;;;;;;;3.80;3.47;;;;;;;19.53;53.94;156383.47;5070923;28;20430;-79
2022/06/17 05:10:43;;;;;;;3.80;3.50;;;;;;;19.81;52.85;156455.16;5066936;28;20446;-79
2022/06/17 05:13:13;;;;;;;4.37;3.97;;;;;;;19.88;52.29;156473.44;5036019;28;20795;-79
2022/06/17 05:15:40;;;;;;;3.73;3.43;;;;;;;20.05;52.26;156517.75;5050303;28;20431;-79
2022/06/17 05:18:07;;;;;;;3.97;3.57;;;;;;;20.32;52.59;156588.25;5064901;28;20453;-79
2022/06/17 05:20:35;;;;;;;4.37;3.97;;;;;;;20.68;52.90;156679.56;5069335;28;20552;-79
2022/06/17 05:23:04;;;;;;;4.53;3.90;;;;;;;20.87;51.97;156729.09;5070991;28;20523;-79
2022/06/17 05:25:33;;;;;;;3.67;3.37;;;;;;;21.27;50.48;156832.25;5070545;28;20468;-79
2022/06/17 05:28:01;;;;;;;3.93;3.37;;;;;;;21.26;51.35;156830.94;5085530;28;20795;-79
2022/06/17 05:30:31;;;;;;;4.03;3.63;;;;;;;21.59;50.67;156915.81;5050924;28;20447;-80
2022/06/17 05:32:58;;;;;;;4.17;3.20;;;;;;;21.98;49.84;157016.38;5049921;28;20467;-79
2022/06/17 05:35:26;;;;;;;4.00;3.60;;;;;;;22.36;48.74;157116.97;5050130;28;20810;-79
2022/06/17 05:37:55;;;;;;;3.63;3.33;;;;;;;22.26;48.04;157090.84;5033025;28;20443;-79
2022/06/17 05:40:22;;;;;;;3.80;3.33;;;;;;;22.46;47.94;157141.75;5050183;28;20482;-79
2022/06/17 05:42:49;;;;;;;3.87;3.50;;;;;;;22.62;47.72;157183.56;5077204;28;20851;-79
2022/06/17 05:45:20;;;;;;;4.10;3.80;;;;;;;22.89;46.90;157254.16;5042163;28;20453;-79
2022/06/17 05:48:04;;;;;;;4.10;3.50;;;;;;;23.33;47.09;157366.53;5066556;28;20435;-79
2022/06/17 05:50:45;;;;;;;6.40;4.03;;;;;;;23.38;46.88;157380.97;5053260;28;20507;-79
2022/06/17 05:53:36;;;;;;;4.97;3.83;;;;;;;23.77;46.07;157481.66;5105889;28;20460;-79
2022/06/17 05:56:24;;;;;;;4.30;3.90;;;;;;;23.76;45.62;157479.00;5072968;28;20433;-79
2022/06/17 05:58:51;;;;;;;4.33;3.97;;;;;;;23.91;45.93;157516.91;5073800;28;20450;-79
2022/06/17 06:01:18;;;;;;;4.27;3.93;;;;;;;23.83;46.43;157497.28;5064846;28;20427;-79
2022/06/17 06:03:45;;;;;;;4.53;4.13;;;;;;;24.14;46.13;157577.13;5079923;28;20928;-79
2022/06/17 06:06:12;;;;;;;6.30;4.37;;;;;;;24.36;45.81;157633.38;5073540;28;20540;-79
2022/06/17 06:08:41;;;;;;;4.00;3.70;;;;;;;24.37;44.78;157635.97;5072922;28;20457;-79
2022/06/17 06:11:08;;;;;;;4.90;4.40;;;;;;;24.47;44.28;157662.13;5072498;28;20519;-79
2022/06/17 06:13:41;;;;;;;5.13;4.70;;;;;;;23.87;45.38;157507.78;5097883;28;20456;-79
2022/06/17 06:16:09;;;;;;;5.33;4.30;;;;;;;23.45;46.64;157397.97;5073833;28;20436;-79
2022/06/17 06:18:41;;;;;;;4.90;4.50;;;;;;;23.81;46.54;157490.75;5084927;28;20482;-76
2022/06/17 06:21:16;;;;;;;7.83;4.93;;;;;;;23.89;45.28;157513.00;5092297;28;20442;-76
2022/06/17 06:23:44;;;;;;;8.40;4.40;;;;;;;23.94;45.67;157526.06;5063638;28;20463;-76
2022/06/17 06:26:15;;;;;;;5.27;4.77;;;;;;;23.64;45.68;157447.66;5074119;28;20802;-76
2022/06/17 06:28:45;;;;;;;6.30;5.10;;;;;;;23.39;46.60;157383.59;5069925;28;20486;-76
2022/06/17 06:31:24;;;;;;;5.13;4.53;;;;;;;23.66;46.45;157452.88;5069895;28;20473;-76
2022/06/17 06:33:52;;;;;;;5.20;4.70;;;;;;;23.86;45.00;157503.84;5044943;28;20486;-76
2022/06/17 06:36:19;;;;;;;7.53;4.60;;;;;;;23.92;45.25;157520.84;5053055;28;20423;-76
2022/06/17 06:38:47;;;;;;;8.87;4.60;;;;;;;24.37;44.73;157635.97;5052077;28;20497;-76
2022/06/17 06:41:14;;;;;;;4.77;4.37;;;;;;;24.37;43.06;157635.97;5054505;28;20438;-76
2022/06/17 06:43:43;;;;;;;5.67;4.90;;;;;;;24.03;43.04;157549.63;5069043;28;20442;-76
2022/06/17 06:46:21;;;;;;;4.90;4.50;;;;;;;23.98;43.58;157535.25;5086633;28;20921;-76
2022/06/17 06:48:50;;;;;;;5.20;4.60;;;;;;;24.54;43.80;157680.47;5036599;28;20474;-76
2022/06/17 06:51:18;;;;;;;5.40;4.80;;;;;;;24.90;43.17;157773.38;5037001;28;20517;-76
2022/06/17 06:53:47;;;;;;;6.33;4.87;;;;;;;25.17;42.93;157845.34;5053448;28;20492;-76
2022/06/17 06:56:13;;;;;;;5.30;4.60;;;;;;;25.50;42.33;157930.44;5053054;28;20902;-76
2022/06/17 06:58:40;;;;;;;5.37;4.60;;;;;;;25.46;41.66;157918.63;5072583;28;20456;-76
2022/06/17 07:01:07;;;;;;;5.83;5.27;;;;;;;25.20;42.52;157853.22;5074020;28;21043;-76
2022/06/17 07:03:34;;;;;;;6.43;5.03;;;;;;;24.89;42.94;157770.78;5073813;28;20488;-76
2022/06/17 07:06:03;;;;;;;5.50;5.00;;;;;;;24.88;43.27;157769.47;5066794;28;20479;-76
2022/06/17 07:08:32;;;;;;;6.50;5.20;;;;;;;24.99;43.14;157796.94;5053628;28;20442;-76
2022/06/17 07:11:01;;;;;;;5.40;4.90;;;;;;;24.87;43.10;157766.84;5086342;28;20435;-76
2022/06/17 07:13:28;;;;;;;5.47;4.93;;;;;;;24.84;43.13;157758.97;5094364;28;21076;-76
2022/06/17 07:15:55;;;;;;;5.90;5.30;;;;;;;24.88;42.89;157768.16;5057280;28;20904;-76
2022/06/17 07:18:24;;;;;;;6.03;5.07;;;;;;;25.14;43.27;157836.19;5073354;28;20426;-77
2022/06/17 07:20:53;;;;;;;6.47;5.77;;;;;;;25.21;42.51;157854.47;5081366;28;20435;-76
2022/06/17 07:23:22;;;;;;;4.87;4.47;;;;;;;25.97;41.87;158052.22;5095740;28;20602;-76
2022/06/17 07:25:49;;;;;;;5.57;5.00;;;;;;;26.16;41.41;158101.97;5053387;28;20416;-76
2022/06/17 07:28:20;;;;;;;5.80;5.30;;;;;;;26.41;40.62;158167.47;5053883;28;20509;-76
2022/06/17 07:30:49;;;;;;;4.80;4.40;;;;;;;26.59;41.12;158214.63;5053853;28;20450;-76
2022/06/17 07:33:17;;;;;;;6.13;5.63;;;;;;;26.34;40.83;158147.84;5088503;28;20470;-76
2022/06/17 07:35:45;;;;;;;5.23;4.83;;;;;;;26.37;41.49;158156.97;5073416;28;20509;-76
2022/06/17 07:40:58;;;;;;;5.00;4.60;;;;;;;26.74;41.45;158251.31;5091455;28;20764;-76
2022/06/17 07:43:26;;;;;;;4.73;4.37;;;;;;;27.20;41.81;158371.88;5063221;28;20476;-76
2022/06/17 07:45:53;;;;;;;6.20;5.70;;;;;;;27.25;41.09;158384.97;5104743;28;20492;-76
2022/06/17 07:48:20;;;;;;;5.67;5.20;;;;;;;27.25;41.67;158384.97;5071619;28;20446;-76
2022/06/17 07:50:47;;;;;;;5.40;4.90;;;;;;;27.16;42.04;158361.41;5104654;28;20661;-76
2022/06/17 07:53:15;;;;;;;5.47;5.07;;;;;;;26.89;41.89;158290.66;5105517;28;20559;-76
2022/06/17 07:55:43;;;;;;;9.20;5.53;;;;;;;27.00;42.11;158319.47;5073035;28;20431;-76
2022/06/17 07:58:10;;;;;;;5.63;5.13;;;;;;;27.20;41.94;158373.19;5067710;28;20438;-76
2022/06/17 08:00:42;;;;;;;6.50;5.73;;;;;;;27.59;40.78;158472.81;5105503;28;20430;-77
2022/06/17 08:03:09;;;;;;;5.73;5.23;;;;;;;27.87;40.92;158544.91;5072644;28;20473;-77
2022/06/17 08:05:37;;;;;;;6.63;6.00;;;;;;;27.57;40.79;158468.91;5105342;27;20560;-76
2022/06/17 08:08:04;;;;;;;6.47;5.97;;;;;;;27.14;40.92;158356.13;5071724;28;20647;-76
2022/06/17 08:10:35;;;;;;;7.07;6.30;;;;;;;27.11;41.63;158348.31;5063457;28;20446;-76
2022/06/17 08:13:02;;;;;;;6.27;5.77;;;;;;;27.24;40.82;158382.38;5075429;28;20468;-76
2022/06/17 08:15:30;;;;;;;10.00;5.80;;;;;;;27.24;40.50;158382.38;5065726;28;20442;-76
2022/06/17 08:17:59;;;;;;;6.07;5.47;;;;;;;27.11;41.01;158349.59;5052277;28;20454;-77
2022/06/17 08:20:29;;;;;;;6.67;6.10;;;;;;;27.37;40.92;158416.44;5063333;28;20568;-77
2022/06/17 08:22:56;;;;;;;5.93;5.43;;;;;;;27.94;39.34;158563.25;5104824;28;20442;-76
2022/06/17 08:25:23;;;;;;;6.00;5.50;;;;;;;27.29;40.83;158395.47;5070443;28;20458;-76
2022/06/17 08:27:51;;;;;;;6.03;5.40;;;;;;;27.53;40.01;158458.44;5104775;28;20452;-76
2022/06/17 08:30:20;;;;;;;5.30;4.80;;;;;;;27.55;39.46;158462.34;5054446;28;20450;-77
2022/06/17 08:32:48;;;;;;;5.47;4.80;;;;;;;27.70;39.38;158501.66;5064475;28;20462;-75
2022/06/17 08:35:18;;;;;;;6.43;5.20;;;;;;;27.84;39.53;158537.03;5070457;28;20446;-77
2022/06/17 08:37:45;;;;;;;5.60;5.13;;;;;;;27.93;38.74;158561.97;5071352;28;20441;-77
2022/06/17 08:40:24;;;;;;;4.70;4.30;;;;;;;27.66;36.61;158492.50;5072574;28;20481;-77
2022/06/17 08:42:58;;;;;;;6.20;4.40;;;;;;;27.70;35.86;158502.97;5057810;28;20522;-77
2022/06/17 08:45:32;;;;;;;4.97;4.50;;;;;;;27.37;36.49;158416.44;5084572;28;20848;-74
2022/06/17 08:48:08;;;;;;;4.20;3.90;;;;;;;27.25;37.57;158383.66;5052005;28;20930;-77
2022/06/17 08:50:56;;;;;;;5.27;4.80;;;;;;;27.41;39.35;158426.94;5050555;28;20445;-74
2022/06/17 08:53:43;;;;;;;5.40;5.00;;;;;;;27.03;40.31;158328.63;5057864;28;20473;-74
2022/06/17 08:56:15;;;;;;;5.20;4.67;;;;;;;27.37;37.84;158416.44;5094086;28;20448;-77
2022/06/17 08:58:47;;;;;;;4.57;4.27;;;;;;;27.86;37.87;158542.28;5069665;28;20872;-77
2022/06/17 09:01:20;;;;;;;5.63;5.13;;;;;;;28.04;39.08;158590.84;5070317;28;20990;-74
2022/06/17 09:04:07;;;;;;;5.23;4.83;;;;;;;27.47;39.30;158441.38;5085575;28;20946;-75
2022/06/17 09:06:46;;;;;;;5.87;5.30;;;;;;;27.01;39.41;158323.38;5049853;28;20438;-74
2022/06/17 09:09:35;;;;;;;6.63;4.80;;;;;;;27.19;40.22;158369.28;5074766;28;20456;-74
2022/06/17 09:12:08;;;;;;;5.63;5.10;;;;;;;27.53;38.68;158457.13;5104407;28;20438;-74
2022/06/17 09:14:43;;;;;;;5.53;5.10;;;;;;;27.77;38.17;158521.31;5067919;28;20553;-75
2022/06/17 09:17:18;;;;;;;6.00;4.63;;;;;;;28.13;38.28;158613.13;5083613;28;20485;-77
2022/06/17 09:19:46;;;;;;;5.70;5.00;;;;;;;27.29;38.13;158394.16;5083558;28;20855;-75
2022/06/17 09:22:17;;;;;;;5.37;4.87;;;;;;;27.19;38.31;158369.28;5050002;28;20435;-76
2022/06/17 09:24:45;;;;;;;4.90;4.50;;;;;;;27.44;37.46;158434.81;5051480;28;20553;-77
2022/06/17 09:27:14;;;;;;;6.17;4.23;;;;;;;28.22;36.12;158636.75;5050426;28;20435;-76
2022/06/17 09:29:45;;;;;;;4.70;4.30;;;;;;;27.71;36.48;158505.59;5051419;28;20532;-76
2022/06/17 09:32:20;;;;;;;4.87;4.20;;;;;;;27.37;36.63;158415.13;5049676;28;20577;-76
2022/06/17 09:34:52;;;;;;;4.20;3.90;;;;;;;27.56;36.89;158466.25;5099023;28;20810;-77
2022/06/17 09:37:26;;;;;;;4.73;4.33;;;;;;;27.97;36.42;158571.13;5103576;28;20457;-77
2022/06/17 09:39:55;;;;;;;5.33;4.83;;;;;;;28.23;35.69;158640.66;5071410;28;20488;-76
2022/06/17 09:42:27;;;;;;;4.73;4.33;;;;;;;27.92;35.88;158558.03;5097504;28;20499;-77
2022/06/17 09:44:57;;;;;;;4.90;4.50;;;;;;;28.32;35.03;158662.97;5103147;28;20867;-77
2022/06/17 09:47:28;;;;;;;4.73;4.37;;;;;;;28.13;34.91;158613.13;5070908;28;20803;-77
2022/06/17 09:49:57;;;;;;;4.40;4.10;;;;;;;27.50;34.87;158450.56;5070964;28;20855;-77
2022/06/17 09:52:29;;;;;;;4.67;4.27;;;;;;;27.21;35.65;158374.50;5070603;28;20474;-76
2022/06/17 09:54:58;;;;;;;4.50;3.70;;;;;;;27.69;34.70;158499.06;5071280;28;20529;-77
2022/06/17 09:57:30;;;;;;;4.87;4.30;;;;;;;27.29;36.16;158394.16;5066375;28;20810;-76
2022/06/17 09:59:58;;;;;;;4.90;4.50;;;;;;;26.78;35.59;158261.81;5051641;28;20447;-76
2022/06/17 10:02:31;;;;;;;4.53;4.23;;;;;;;26.60;35.86;158217.25;5051453;28;20447;-74
2022/06/17 10:04:59;;;;;;;7.17;3.87;;;;;;;26.89;35.83;158291.97;5064978;28;20536;-76
2022/06/17 10:07:32;;;;;;;7.40;4.37;;;;;;;27.54;34.90;158459.69;5051212;28;20504;-77
2022/06/17 10:10:14;;;;;;;3.67;3.37;;;;;;;27.13;34.78;158354.88;5086750;28;20544;-77
2022/06/17 10:12:51;;;;;;;5.43;4.30;;;;;;;27.00;34.60;158319.47;5069421;28;20569;-77
2022/06/17 10:15:35;;;;;;;4.50;4.10;;;;;;;27.19;34.63;158370.56;5054310;28;20852;-77
2022/06/17 10:21:10;;;;;;;4.20;3.80;;;;;;;27.57;32.94;158467.56;5051259;28;20431;-77
2022/06/17 10:23:44;;;;;;;3.77;3.47;;;;;;;27.75;33.03;158516.06;5083562;28;20463;-77
2022/06/17 10:26:19;;;;;;;3.93;3.63;;;;;;;27.92;33.50;158558.03;5051921;28;20419;-77
2022/06/17 10:29:01;;;;;;;4.00;3.70;;;;;;;27.49;33.33;158447.94;5082876;28;20505;-77
2022/06/17 10:31:33;;;;;;;3.40;3.20;;;;;;;27.17;32.18;158365.31;5086706;28;20473;-77
2022/06/17 10:34:04;;;;;;;2.90;2.70;;;;;;;26.80;30.54;158267.06;5058984;28;20478;-76
2022/06/17 10:36:31;;;;;;;3.13;2.93;;;;;;;26.61;32.37;158218.53;5102486;28;20544;-76
2022/06/17 10:39:01;;;;;;;3.47;3.17;;;;;;;26.86;31.62;158282.78;5069199;28;20524;-76
2022/06/17 10:41:29;;;;;;;3.67;3.37;;;;;;;27.10;31.87;158345.69;5067682;28;20533;-76
2022/06/17 10:43:56;;;;;;;3.60;3.03;;;;;;;27.52;32.42;158455.78;5078957;28;20441;-76
2022/06/17 10:46:24;;;;;;;4.57;4.27;;;;;;;27.72;32.13;158508.19;5076407;28;20449;-76
2022/06/17 10:48:56;;;;;;;3.20;3.00;;;;;;;27.90;31.48;158552.78;5059919;28;20443;-76
2022/06/17 10:51:23;;;;;;;4.20;3.53;;;;;;;27.46;31.64;158440.06;5053160;28;20438;-76
2022/06/17 10:53:52;;;;;;;3.57;3.27;;;;;;;27.05;31.99;158333.91;5072713;28;20860;-76
2022/06/17 10:56:25;;;;;;;3.03;2.73;;;;;;;26.98;32.11;158315.53;5073483;28;20427;-76
2022/06/17 10:58:57;;;;;;;3.80;3.50;;;;;;;26.78;31.96;158261.81;5085996;28;20496;-76
2022/06/17 11:01:25;;;;;;;4.50;3.60;;;;;;;27.24;32.31;158382.38;5086888;28;20527;-74
2022/06/17 11:04:10;;;;;;;3.73;3.43;;;;;;;27.15;32.05;158360.09;5056903;28;20497;-74
2022/06/17 11:06:46;;;;;;;4.30;3.80;;;;;;;26.89;33.32;158290.66;5072832;28;20434;-74
2022/06/17 11:09:20;;;;;;;4.40;4.00;;;;;;;26.91;35.26;158295.88;5089789;28;20446;-74
2022/06/17 11:12:04;;;;;;;4.87;4.30;;;;;;;27.27;34.78;158388.94;5070742;28;20442;-74
2022/06/17 11:14:35;;;;;;;3.60;3.30;;;;;;;27.30;33.46;158396.78;5069249;28;20485;-74
2022/06/17 11:17:03;;;;;;;3.33;3.03;;;;;;;27.34;33.69;158407.25;5053611;28;20430;-74
2022/06/17 11:19:30;;;;;;;3.40;3.20;;;;;;;27.10;31.95;158347.00;5085051;28;20487;-74
2022/06/17 11:22:00;;;;;;;3.77;3.47;;;;;;;26.97;33.32;158311.63;5057336;28;20519;-74
2022/06/17 11:24:29;;;;;;;3.80;3.50;;;;;;;26.81;34.52;158269.69;5073699;28;20436;-74
2022/06/17 11:27:07;;;;;;;4.23;3.83;;;;;;;26.71;34.73;158244.78;5071498;28;20532;-75
2022/06/17 11:29:40;;;;;;;3.60;3.30;;;;;;;26.52;35.02;158196.31;5055399;28;20468;-77
2022/06/17 11:32:24;;;;;;;4.43;4.03;;;;;;;26.67;35.02;158232.94;5072674;28;20458;-74
2022/06/17 11:34:54;;;;;;;3.97;3.67;;;;;;;26.96;34.04;158310.28;5054642;28;20528;-74
2022/06/17 11:37:24;;;;;;;4.00;3.70;;;;;;;26.71;33.89;158243.44;5085252;28;20466;-76
2022/06/17 11:40:10;;;;;;;6.57;4.00;;;;;;;26.67;34.56;158232.94;5055045;28;20463;-77
2022/06/17 11:42:47;;;;;;;3.50;3.30;;;;;;;27.03;32.84;158327.34;5071439;28;20527;-74
2022/06/17 11:45:17;;;;;;;3.67;3.33;;;;;;;27.05;33.30;158332.56;5085280;28;20541;-74
2022/06/17 11:47:47;;;;;;;3.77;3.47;;;;;;;27.07;33.12;158339.13;5067771;28;20435;-74